Time;durP1;ratioP1;P1;durP2;ratioP2;P2;SDS_P1;SDS_P2;PMS_P1;PMS_P2;Temp;Humidity;BMP_temperature;BMP_pressure;BME280_temperature;BME280_humidity;BME280_pressure;Samples;Min_cycle;Max_cycle;Signal;HPM_P1;HPM_P2
2024/02/15 00:01:19;;;;;;;;;;;;;;;0.92;77.95;101911.88;5033545;28;19932;-81
2024/02/15 00:03:46;;;;;;;;;;;;;;;0.92;77.96;101905.84;5033896;28;20015;-80
2024/02/15 00:06:14;;;;;;;;;;;;;;;0.93;77.80;101910.19;5033871;28;19976;-81
2024/02/15 00:08:41;;;;;;;;;;;;;;;0.93;77.72;101912.75;5033831;28;19929;-81
2024/02/15 00:11:09;;;;;;;;;;;;;;;0.92;78.00;101919.63;5033579;28;19925;-81
2024/02/15 00:13:36;;;;;;;;;;;;;;;0.92;78.02;101909.31;5033786;28;20301;-81
2024/02/15 00:16:02;;;;;;;;;;;;;;;0.93;78.08;101908.47;5033475;28;19929;-81
2024/02/15 00:18:30;;;;;;;;;;;;;;;0.93;77.79;101908.47;5033561;28;19925;-81
2024/02/15 00:20:57;;;;;;;;;;;;;;;0.93;78.14;101900.75;5033677;28;19932;-81
2024/02/15 00:23:25;;;;;;;;;;;;;;;0.94;77.69;101909.38;5033433;28;19925;-81
2024/02/15 00:25:51;;;;;;;;;;;;;;;0.94;77.86;101912.81;5033110;28;19929;-81
2024/02/15 00:28:18;;;;;;;;;;;;;;;0.95;78.00;101918.84;5033049;28;19932;-73
2024/02/15 00:30:45;;;;;;;;;;;;;;;0.95;77.97;101909.41;5032599;28;19940;-74
2024/02/15 00:33:11;;;;;;;;;;;;;;;0.96;78.04;101912.84;5032498;28;20316;-73
2024/02/15 00:35:38;;;;;;;;;;;;;;;0.95;77.96;101906.84;5032903;28;19925;-73
2024/02/15 00:38:05;;;;;;;;;;;;;;;0.96;77.72;101908.59;5032428;28;20004;-73
2024/02/15 00:40:33;;;;;;;;;;;;;;;0.97;78.01;101894.88;5035954;28;19925;-73
2024/02/15 00:43:00;;;;;;;;;;;;;;;0.97;77.65;101894.00;5036045;28;20016;-73
2024/02/15 00:45:26;;;;;;;;;;;;;;;0.97;77.58;101900.03;5036296;28;20392;-73
2024/02/15 00:47:53;;;;;;;;;;;;;;;0.96;77.92;101903.44;5035973;28;19925;-73
2024/02/15 00:50:20;;;;;;;;;;;;;;;0.97;77.85;101894.00;5035833;28;19925;-74
2024/02/15 00:52:47;;;;;;;;;;;;;;;0.97;78.12;101902.63;5036097;28;19925;-73
2024/02/15 00:55:13;;;;;;;;;;;;;;;0.97;77.68;101905.19;5036067;28;19932;-73
2024/02/15 00:57:41;;;;;;;;;;;;;;;0.97;78.08;101900.03;5035990;28;19932;-81
2024/02/15 01:00:09;;;;;;;;;;;;;;;0.97;78.02;101901.75;5036809;28;20305;-81
2024/02/15 01:02:36;;;;;;;;;;;;;;;0.96;77.94;101898.31;5036597;28;19932;-81
2024/02/15 01:05:04;;;;;;;;;;;;;;;0.97;78.08;101894.88;5036998;28;19929;-81
2024/02/15 01:07:30;;;;;;;;;;;;;;;0.97;78.16;101889.72;5036518;28;19979;-81
2024/02/15 01:09:57;;;;;;;;;;;;;;;0.98;78.09;101894.06;5036627;28;19925;-81
2024/02/15 01:12:24;;;;;;;;;;;;;;;0.98;78.09;101894.06;5036362;28;20496;-81
2024/02/15 01:14:52;;;;;;;;;;;;;;;0.99;78.05;101895.81;5036408;28;19926;-80
2024/02/15 01:17:19;;;;;;;;;;;;;;;0.99;77.77;101893.25;5036215;28;19925;-81
2024/02/15 01:19:45;;;;;;;;;;;;;;;0.99;78.07;101893.25;5035955;28;19926;-80
2024/02/15 01:22:12;;;;;;;;;;;;;;;1.00;77.93;101888.97;5036434;28;19933;-81
2024/02/15 01:24:39;;;;;;;;;;;;;;;1.00;78.10;101891.53;5036138;28;19925;-80
2024/02/15 01:27:07;;;;;;;;;;;;;;;1.00;77.85;101891.53;5035910;28;19955;-80
2024/02/15 01:29:34;;;;;;;;;;;;;;;0.99;77.81;101890.69;5035961;28;19929;-80
2024/02/15 01:32:02;;;;;;;;;;;;;;;0.99;78.17;101888.09;5035810;28;20063;-81
2024/02/15 01:34:29;;;;;;;;;;;;;;;1.00;77.98;101888.97;5035981;28;19971;-80
2024/02/15 01:36:56;;;;;;;;;;;;;;;1.00;77.58;101894.13;5035827;28;20373;-80
2024/02/15 01:39:22;;;;;;;;;;;;;;;0.99;77.53;101882.03;5035323;28;19936;-77
2024/02/15 01:41:50;;;;;;;;;;;;;;;0.99;77.96;101888.09;5034824;28;19925;-77
2024/02/15 01:44:17;;;;;;;;;;;;;;;0.98;77.83;101886.31;5035224;28;19925;-77
2024/02/15 01:46:46;;;;;;;;;;;;;;;0.98;78.00;101881.16;5034938;28;19925;-76
2024/02/15 01:49:15;;;;;;;;;;;;;;;0.98;78.03;101881.16;5035232;28;19929;-77
2024/02/15 01:51:43;;;;;;;;;;;;;;;0.98;78.10;101883.75;5033972;28;19925;-77
2024/02/15 01:54:10;;;;;;;;;;;;;;;0.98;78.21;101881.16;5034769;28;19925;-77
2024/02/15 01:56:37;;;;;;;;;;;;;;;0.98;77.78;101882.88;5034540;28;19925;-77
2024/02/15 01:59:06;;;;;;;;;;;;;;;0.98;78.02;101886.31;5034472;28;19931;-76
2024/02/15 02:01:33;;;;;;;;;;;;;;;0.98;78.01;101886.31;5034638;28;19968;-77
2024/02/15 02:04:01;;;;;;;;;;;;;;;0.98;77.83;101880.28;5034437;28;19926;-77
2024/02/15 02:06:29;;;;;;;;;;;;;;;0.98;78.12;101883.75;5034318;28;20297;-77
2024/02/15 02:08:56;;;;;;;;;;;;;;;0.98;77.92;101883.75;5034609;28;20275;-77
2024/02/15 02:11:23;;;;;;;;;;;;;;;0.98;77.99;101882.88;5034373;28;19932;-77
2024/02/15 02:13:49;;;;;;;;;;;;;;;0.98;78.12;101877.72;5034566;28;19929;-77
2024/02/15 02:16:35;;;;;;;;;;;;;;;0.98;78.01;101881.16;5034473;28;20246;-77
2024/02/15 02:19:02;;;;;;;;;;;;;;;0.97;78.06;101876.84;5034182;28;19932;-77
2024/02/15 02:21:30;;;;;;;;;;;;;;;0.99;77.65;101876.88;5034414;28;20401;-77
2024/02/15 02:23:57;;;;;;;;;;;;;;;0.99;77.50;101872.63;5033842;28;20427;-77
2024/02/15 02:26:26;;;;;;;;;;;;;;;0.99;78.07;101877.78;5034025;28;19925;-77
2024/02/15 02:28:53;;;;;;;;;;;;;;;1.00;78.03;101871.81;5034121;28;19936;-77
2024/02/15 02:31:20;;;;;;;;;;;;;;;0.99;78.05;101872.63;5034009;28;19929;-77
2024/02/15 02:33:48;;;;;;;;;;;;;;;1.00;77.85;101870.94;5033724;28;19931;-77
2024/02/15 02:36:15;;;;;;;;;;;;;;;1.00;78.05;101874.38;5033830;28;19925;-77
2024/02/15 02:38:45;;;;;;;;;;;;;;;1.01;78.14;101876.13;5033932;28;20510;-77
2024/02/15 02:41:12;;;;;;;;;;;;;;;1.01;78.12;101870.97;5033798;28;19979;-77
2024/02/15 02:43:40;;;;;;;;;;;;;;;1.02;78.04;101867.59;5034039;28;20012;-77
2024/02/15 02:46:06;;;;;;;;;;;;;;;1.02;77.88;101872.72;5033699;28;19925;-77
2024/02/15 02:48:33;;;;;;;;;;;;;;;1.02;78.22;101867.59;5033813;28;19936;-77
2024/02/15 02:51:00;;;;;;;;;;;;;;;1.02;78.08;101861.53;5033713;28;19926;-77
2024/02/15 02:53:27;;;;;;;;;;;;;;;1.02;78.01;101861.53;5033627;28;19932;-77
2024/02/15 02:55:53;;;;;;;;;;;;;;;1.02;78.04;101854.69;5033508;28;19936;-76
2024/02/15 02:58:20;;;;;;;;;;;;;;;1.04;77.79;101859.88;5033501;28;19929;-77
2024/02/15 03:00:49;;;;;;;;;;;;;;;1.03;77.92;101859.00;5033394;28;20309;-77
2024/02/15 03:03:15;;;;;;;;;;;;;;;1.03;78.34;101859.00;5033380;28;20301;-77
2024/02/15 03:05:42;;;;;;;;;;;;;;;1.04;77.86;101865.03;5033319;28;19931;-77
2024/02/15 03:08:09;;;;;;;;;;;;;;;1.05;78.01;101864.22;5033502;28;20275;-76
2024/02/15 03:10:36;;;;;;;;;;;;;;;1.05;77.85;101863.34;5033305;28;19940;-77
2024/02/15 03:13:04;;;;;;;;;;;;;;;1.06;78.02;101868.56;5033671;28;19936;-77
2024/02/15 03:15:32;;;;;;;;;;;;;;;1.08;78.19;101871.16;5033617;28;19925;-77
2024/02/15 03:18:06;;;;;;;;;;;;;;;1.08;77.94;101868.59;5033382;28;20017;-77
2024/02/15 03:20:33;;;;;;;;;;;;;;;1.08;78.06;101876.31;5033224;28;19929;-77
2024/02/15 03:23:01;;;;;;;;;;;;;;;1.09;77.88;101866.06;5033283;28;19929;-77
2024/02/15 03:25:28;;;;;;;;;;;;;;;1.09;78.24;101872.94;5033381;28;19925;-77
2024/02/15 03:27:56;;;;;;;;;;;;;;;1.09;78.14;101867.78;5033392;28;20362;-76
2024/02/15 03:30:23;;;;;;;;;;;;;;;1.09;78.00;101867.78;5033443;28;20417;-77
2024/02/15 03:32:50;;;;;;;;;;;;;;;1.09;77.83;101870.34;5033198;28;19972;-77
2024/02/15 03:35:19;;;;;;;;;;;;;;;1.09;77.79;101863.50;5033182;28;19929;-77
2024/02/15 03:37:46;;;;;;;;;;;;;;;1.09;77.88;101871.22;5033150;28;20023;-77
2024/02/15 03:40:12;;;;;;;;;;;;;;;1.10;78.19;101869.53;5033157;28;19935;-77
2024/02/15 03:42:39;;;;;;;;;;;;;;;1.09;77.80;101868.66;5033101;28;19929;-77
2024/02/15 03:45:06;;;;;;;;;;;;;;;1.10;78.21;101869.53;5033093;28;19935;-77
2024/02/15 03:47:33;;;;;;;;;;;;;;;1.10;78.10;101874.69;5033241;28;19933;-77
2024/02/15 03:50:00;;;;;;;;;;;;;;;1.10;77.84;101874.69;5032989;28;19929;-77
2024/02/15 03:52:29;;;;;;;;;;;;;;;1.10;77.86;101879.84;5032953;28;19925;-77
2024/02/15 03:54:56;;;;;;;;;;;;;;;1.06;78.33;101873.72;5032927;28;19933;-77
2024/02/15 03:57:23;;;;;;;;;;;;;;;1.10;78.05;101877.25;5032931;28;19929;-77
2024/02/15 03:59:52;;;;;;;;;;;;;;;1.09;78.16;101878.97;5050442;28;19931;-77
2024/02/15 04:02:19;;;;;;;;;;;;;;;1.10;77.67;101882.41;5052630;28;19929;-76
2024/02/15 04:04:47;;;;;;;;;;;;;;;1.09;78.13;101878.09;5052698;28;20385;-77
2024/02/15 04:07:14;;;;;;;;;;;;;;;1.09;78.02;101875.50;5052946;28;19932;-77
2024/02/15 04:09:42;;;;;;;;;;;;;;;1.09;78.21;101876.38;5052854;28;19931;-77
2024/02/15 04:12:09;;;;;;;;;;;;;;;1.10;78.09;101874.69;5052662;28;19931;-77
2024/02/15 04:14:35;;;;;;;;;;;;;;;1.10;77.97;101879.84;5054686;28;19931;-77
2024/02/15 04:17:02;;;;;;;;;;;;;;;1.11;78.19;101885.06;5056415;28;20377;-77
2024/02/15 04:19:30;;;;;;;;;;;;;;;1.10;78.15;101880.69;5056506;28;20328;-77
2024/02/15 04:21:56;;;;;;;;;;;;;;;1.11;78.03;101885.06;5056549;28;19925;-77
2024/02/15 04:24:23;;;;;;;;;;;;;;;1.12;78.16;101883.34;5047296;28;19932;-77
2024/02/15 04:26:51;;;;;;;;;;;;;;;1.11;77.82;101877.31;5036400;28;19925;-76
2024/02/15 04:29:20;;;;;;;;;;;;;;;1.11;78.06;101890.22;5036465;28;19933;-72
2024/02/15 04:31:49;;;;;;;;;;;;;;;1.12;78.17;101883.34;5036199;28;19925;-73
2024/02/15 04:34:16;;;;;;;;;;;;;;;1.12;78.16;101885.94;5036375;28;19925;-73
2024/02/15 04:36:45;;;;;;;;;;;;;;;1.11;78.04;101881.59;5036105;28;19925;-72
2024/02/15 04:39:18;;;;;;;;;;;;;;;1.13;77.95;101885.09;5036460;28;19924;-73
2024/02/15 04:41:46;;;;;;;;;;;;;;;1.12;78.28;101880.78;5036170;28;19925;-72
2024/02/15 04:44:16;;;;;;;;;;;;;;;1.12;78.38;101885.94;5036049;28;19991;-73
2024/02/15 04:46:45;;;;;;;;;;;;;;;1.12;77.97;101883.34;5036157;28;20400;-72
2024/02/15 04:49:12;;;;;;;;;;;;;;;1.12;78.21;101891.09;5036216;28;20281;-73
2024/02/15 04:51:40;;;;;;;;;;;;;;;1.12;78.09;101891.94;5035809;28;20468;-73
2024/02/15 04:54:07;;;;;;;;;;;;;;;1.12;78.04;101888.50;5036017;28;20351;-72
2024/02/15 04:56:35;;;;;;;;;;;;;;;1.12;78.06;101884.22;5035955;28;19935;-72
2024/02/15 04:59:02;;;;;;;;;;;;;;;1.11;77.92;101895.38;5035765;28;19929;-73
2024/02/15 05:01:33;;;;;;;;;;;;;;;1.12;78.22;101888.50;5035716;28;19932;-72
2024/02/15 05:03:59;;;;;;;;;;;;;;;1.10;77.77;101890.16;5035789;28;19925;-72
2024/02/15 05:06:29;;;;;;;;;;;;;;;1.11;77.78;101895.38;5035909;28;19932;-72
2024/02/15 05:08:56;;;;;;;;;;;;;;;1.10;78.25;101888.44;5035480;28;19932;-72
2024/02/15 05:11:23;;;;;;;;;;;;;;;1.12;77.76;101893.66;5035523;28;19979;-72
2024/02/15 05:13:50;;;;;;;;;;;;;;;1.10;78.20;101895.31;5035618;28;20021;-72
2024/02/15 05:16:17;;;;;;;;;;;;;;;1.11;77.70;101892.78;5035453;28;19925;-73
2024/02/15 05:18:45;;;;;;;;;;;;;;;1.10;78.24;101892.72;5035464;28;19947;-72
2024/02/15 05:21:13;;;;;;;;;;;;;;;1.10;78.41;101890.16;5035227;28;19925;-72
2024/02/15 05:23:41;;;;;;;;;;;;;;;1.10;78.19;101895.31;5035530;28;20309;-72
2024/02/15 05:26:09;;;;;;;;;;;;;;;1.10;78.14;101901.31;5034149;28;20430;-72
2024/02/15 05:28:36;;;;;;;;;;;;;;;1.10;77.83;101895.31;5035691;28;20381;-72
2024/02/15 05:31:10;;;;;;;;;;;;;;;1.09;78.02;101897.00;5035162;28;19925;-72
2024/02/15 05:33:38;;;;;;;;;;;;;;;1.09;78.11;101889.28;5035244;28;19932;-72
2024/02/15 05:36:08;;;;;;;;;;;;;;;1.08;78.07;101884.06;5034927;28;19929;-71
2024/02/15 05:38:35;;;;;;;;;;;;;;;1.09;77.83;101890.97;5036135;28;19933;-86
2024/02/15 05:41:02;;;;;;;;;;;;;;;1.09;78.35;101893.56;5036165;28;19972;-85
2024/02/15 05:43:30;;;;;;;;;;;;;;;1.08;78.08;101892.69;5036357;28;19957;-86
2024/02/15 05:45:57;;;;;;;;;;;;;;;1.09;77.96;101896.13;5036306;28;19932;-89
2024/02/15 05:48:24;;;;;;;;;;;;;;;1.08;78.16;101896.94;5037454;28;20000;-87
2024/02/15 05:50:51;;;;;;;;;;;;;;;1.09;78.25;101903.88;5036339;28;19925;-87
2024/02/15 05:53:19;;;;;;;;;;;;;;;1.09;78.21;101898.72;5036261;28;19932;-86
2024/02/15 05:55:45;;;;;;;;;;;;;;;1.09;78.21;101906.44;5036364;28;19931;-88
2024/02/15 05:58:13;;;;;;;;;;;;;;;1.10;78.38;101905.59;5036285;28;19931;-88
2024/02/15 06:00:40;;;;;;;;;;;;;;;1.08;77.89;101912.41;5036430;28;20012;-88
2024/02/15 06:03:09;;;;;;;;;;;;;;;1.09;78.01;101909.03;5035979;28;19925;-87
2024/02/15 06:05:35;;;;;;;;;;;;;;;1.07;77.97;101906.38;5035913;28;20366;-87
2024/02/15 06:08:02;;;;;;;;;;;;;;;1.07;77.95;101911.53;5036007;28;19925;-88
2024/02/15 06:10:30;;;;;;;;;;;;;;;1.07;77.93;101915.81;5036265;28;19925;-88
2024/02/15 06:12:57;;;;;;;;;;;;;;;1.07;78.14;101913.25;5035982;28;19979;-87
2024/02/15 06:15:24;;;;;;;;;;;;;;;1.07;78.14;101915.81;5035614;28;19932;-87
2024/02/15 06:17:50;;;;;;;;;;;;;;;1.07;78.13;101915.81;5035354;28;19936;-78
2024/02/15 06:20:17;;;;;;;;;;;;;;;1.06;78.32;101914.06;5034351;28;20297;-78
2024/02/15 06:22:43;;;;;;;;;;;;;;;1.07;77.80;101915.81;5034334;28;20145;-77
2024/02/15 06:25:11;;;;;;;;;;;;;;;1.06;78.17;101920.09;5034111;28;19929;-77
2024/02/15 06:27:40;;;;;;;;;;;;;;;1.06;77.93;101924.38;5034298;28;20343;-77
2024/02/15 06:41:04;;;;;;;;;;;;;;;1.06;78.17;101920.09;5034291;28;19936;-77
2024/02/15 06:43:33;;;;;;;;;;;;;;;1.06;78.23;101925.25;5033926;28;19925;-78
2024/02/15 06:45:59;;;;;;;;;;;;;;;1.08;78.05;101920.13;5033513;28;19933;-75
2024/02/15 06:48:26;;;;;;;;;;;;;;;1.08;78.27;101922.72;5051668;28;19928;-77
2024/02/15 06:50:52;;;;;;;;;;;;;;;1.09;78.26;101932.22;5053695;28;19928;-76
2024/02/15 06:53:20;;;;;;;;;;;;;;;1.10;78.11;101926.22;5051961;28;19932;-80
2024/02/15 06:55:48;;;;;;;;;;;;;;;1.09;78.25;101933.09;5051102;28;20014;-77
2024/02/15 06:58:15;;;;;;;;;;;;;;;1.10;77.73;101931.38;5033503;28;19929;-77
2024/02/15 07:00:43;;;;;;;;;;;;;;;1.11;78.16;101933.16;5033659;28;19972;-77
2024/02/15 07:03:10;;;;;;;;;;;;;;;1.11;78.28;101934.03;5033333;28;19932;-77
2024/02/15 07:05:37;;;;;;;;;;;;;;;1.13;77.94;101941.78;5033542;28;19925;-78
2024/02/15 07:08:05;;;;;;;;;;;;;;;1.12;78.21;101937.47;5033444;28;19925;-77
2024/02/15 07:10:31;;;;;;;;;;;;;;;1.13;78.23;101936.63;5033472;28;20298;-74
2024/02/15 07:12:58;;;;;;;;;;;;;;;1.12;78.25;101933.19;5033280;28;19925;-73
2024/02/15 07:15:25;;;;;;;;;;;;;;;1.12;78.23;101935.78;5033258;28;19929;-73
2024/02/15 07:17:54;;;;;;;;;;;;;;;1.13;78.37;101940.09;5033497;28;20326;-74
2024/02/15 07:20:23;;;;;;;;;;;;;;;1.14;78.26;101938.41;5033188;28;19925;-74
2024/02/15 07:22:49;;;;;;;;;;;;;;;1.15;78.34;101942.75;5033479;28;20000;-77
2024/02/15 07:25:16;;;;;;;;;;;;;;;1.15;78.13;101942.75;5033091;28;20305;-77
2024/02/15 07:27:42;;;;;;;;;;;;;;;1.16;78.29;101936.75;5033601;28;19925;-84
2024/02/15 07:30:09;;;;;;;;;;;;;;;1.16;78.43;101944.47;5033418;28;19925;-79
2024/02/15 07:32:36;;;;;;;;;;;;;;;1.17;78.24;101948.84;5033804;28;19926;-79
2024/02/15 07:35:07;;;;;;;;;;;;;;;1.17;78.35;101948.84;5033608;28;19932;-79
2024/02/15 07:37:34;;;;;;;;;;;;;;;1.18;78.46;101940.25;5032953;28;19936;-76
2024/02/15 07:40:01;;;;;;;;;;;;;;;1.16;78.10;101937.66;5036780;28;20283;-76
2024/02/15 07:42:28;;;;;;;;;;;;;;;1.18;78.16;101938.56;5053060;28;19968;-81
2024/02/15 07:44:54;;;;;;;;;;;;;;;1.18;78.19;101938.56;5053797;28;19925;-79
2024/02/15 07:47:24;;;;;;;;;;;;;;;1.20;78.46;101939.50;5053506;28;20400;-78
2024/02/15 07:49:50;;;;;;;;;;;;;;;1.20;78.39;101936.91;5056453;28;20444;-81
2024/02/15 07:52:18;;;;;;;;;;;;;;;1.21;78.38;101940.38;5058566;28;19931;-82
2024/02/15 07:54:46;;;;;;;;;;;;;;;1.22;78.27;101944.69;5058040;28;19925;-82
2024/02/15 07:57:14;;;;;;;;;;;;;;;1.23;78.43;101944.75;5058005;28;19964;-78
2024/02/15 07:59:42;;;;;;;;;;;;;;;1.25;78.49;101945.69;5056768;28;20011;-77
2024/02/15 08:02:08;;;;;;;;;;;;;;;1.26;78.36;101943.97;5056737;28;20313;-74
2024/02/15 08:04:40;;;;;;;;;;;;;;;1.27;78.52;101943.16;5057096;28;19924;-75
2024/02/15 08:07:10;;;;;;;;;;;;;;;1.28;78.51;101944.91;5056980;28;20289;-76
2024/02/15 08:09:38;;;;;;;;;;;;;;;1.30;78.55;101943.25;5056634;28;19929;-75
2024/02/15 08:12:05;;;;;;;;;;;;;;;1.31;78.49;101941.56;5056433;28;20412;-76
2024/02/15 08:14:32;;;;;;;;;;;;;;;1.34;78.58;101942.53;5056653;28;19931;-77
2024/02/15 08:16:58;;;;;;;;;;;;;;;1.37;78.22;101937.50;5056587;28;19925;-74
2024/02/15 08:19:28;;;;;;;;;;;;;;;1.38;78.79;101936.66;5056435;28;19931;-75
2024/02/15 08:21:56;;;;;;;;;;;;;;;1.41;78.48;101936.75;5056223;28;20447;-75
2024/02/15 08:24:22;;;;;;;;;;;;;;;1.42;78.54;101935.94;5040603;28;19933;-74
2024/02/15 08:26:51;;;;;;;;;;;;;;;1.44;78.29;101934.28;5036360;28;20296;-74
2024/02/15 08:29:19;;;;;;;;;;;;;;;1.48;78.59;101943.00;5036303;28;20428;-75
2024/02/15 08:31:46;;;;;;;;;;;;;;;1.51;78.53;101944.81;5036301;28;19929;-75
2024/02/15 08:34:14;;;;;;;;;;;;;;;1.54;78.59;101934.59;5055464;28;19944;-74
2024/02/15 08:36:40;;;;;;;;;;;;;;;1.57;78.50;101937.28;5056160;28;19925;-77
2024/02/15 08:39:08;;;;;;;;;;;;;;;1.59;78.42;101933.94;5056175;28;19935;-77
2024/02/15 08:41:34;;;;;;;;;;;;;;;1.62;78.27;101935.75;5056223;28;19946;-77
2024/02/15 08:44:06;;;;;;;;;;;;;;;1.64;78.32;101931.47;5055843;28;19932;-77
2024/02/15 08:46:32;;;;;;;;;;;;;;;1.66;78.50;101935.88;5055747;28;19947;-77
2024/02/15 08:49:00;;;;;;;;;;;;;;;1.70;78.50;101931.69;5055806;28;19931;-77
2024/02/15 08:51:27;;;;;;;;;;;;;;;1.71;78.50;101936.03;5055824;28;19929;-77
2024/02/15 08:53:53;;;;;;;;;;;;;;;1.74;78.27;101933.53;5056079;28;19932;-78
2024/02/15 08:56:20;;;;;;;;;;;;;;;1.75;78.12;101940.44;5056083;28;20297;-76
2024/02/15 08:58:47;;;;;;;;;;;;;;;1.78;78.38;101942.25;5056038;28;19929;-79
2024/02/15 09:01:14;;;;;;;;;;;;;;;1.79;78.23;101946.56;5055549;28;19932;-78
2024/02/15 09:03:41;;;;;;;;;;;;;;;1.79;78.16;101952.63;5055506;28;19964;-78
2024/02/15 09:06:08;;;;;;;;;;;;;;;1.80;78.02;101948.34;5055570;28;19931;-79
2024/02/15 09:08:34;;;;;;;;;;;;;;;1.81;78.25;101940.63;5055725;28;19935;-78
2024/02/15 09:11:01;;;;;;;;;;;;;;;1.84;78.10;101956.22;5055445;28;19925;-76
2024/02/15 09:13:28;;;;;;;;;;;;;;;1.85;78.31;101947.66;5055463;28;20396;-76
2024/02/15 09:15:54;;;;;;;;;;;;;;;1.88;78.38;101945.19;5055297;28;19924;-77
2024/02/15 09:18:23;;;;;;;;;;;;;;;1.89;78.17;101944.34;5055582;28;20417;-76
2024/02/15 09:20:55;;;;;;;;;;;;;;;1.91;78.14;101945.28;5055259;28;19978;-77
2024/02/15 09:23:23;;;;;;;;;;;;;;;1.91;77.98;101950.44;5055265;28;19924;-77
2024/02/15 09:25:51;;;;;;;;;;;;;;;1.92;78.17;101947.00;5055439;28;19925;-81
2024/02/15 09:28:21;;;;;;;;;;;;;;;1.93;78.38;101951.38;5055186;28;19925;-77
2024/02/15 09:30:48;;;;;;;;;;;;;;;1.92;78.14;101943.56;5055056;28;19935;-77
2024/02/15 09:33:14;;;;;;;;;;;;;;;1.93;78.20;101951.38;5055130;28;19925;-77
2024/02/15 09:35:42;;;;;;;;;;;;;;;1.95;77.95;101956.56;5055299;28;20305;-77
2024/02/15 09:38:09;;;;;;;;;;;;;;;1.95;78.18;101953.97;5054922;28;19925;-77
2024/02/15 09:40:36;;;;;;;;;;;;;;;1.96;78.23;101949.69;5036554;28;19925;-77
2024/02/15 09:43:02;;;;;;;;;;;;;;;1.97;78.05;101948.88;5034950;28;19926;-79
2024/02/15 09:45:30;;;;;;;;;;;;;;;1.98;78.12;101953.22;5035010;28;19925;-76
2024/02/15 09:48:01;;;;;;;;;;;;;;;1.97;77.97;101954.03;5035034;28;19960;-77
2024/02/15 09:50:31;;;;;;;;;;;;;;;1.95;77.83;101942.78;5034940;28;19936;-74
2024/02/15 09:53:01;;;;;;;;;;;;;;;1.94;77.77;101954.81;5034655;28;19936;-75
2024/02/15 09:55:29;;;;;;;;;;;;;;;1.91;77.85;101947.84;5051746;28;19928;-76
2024/02/15 09:57:56;;;;;;;;;;;;;;;1.90;78.12;101947.78;5054480;28;19929;-76
2024/02/15 10:00:23;;;;;;;;;;;;;;;1.90;78.09;101951.28;5054741;28;19925;-76
2024/02/15 10:02:52;;;;;;;;;;;;;;;1.91;78.03;101953.03;5054698;28;20420;-77
2024/02/15 10:05:20;;;;;;;;;;;;;;;1.92;77.96;101954.75;5054607;28;20032;-76
2024/02/15 10:07:47;;;;;;;;;;;;;;;1.91;77.82;101958.19;5054667;28;20015;-76
2024/02/15 10:10:19;;;;;;;;;;;;;;;1.89;77.75;101949.50;5054368;28;19925;-78
2024/02/15 10:12:47;;;;;;;;;;;;;;;1.89;77.85;101957.25;5053876;28;19971;-76
2024/02/15 10:15:28;;;;;;;;;;;;;;;1.88;77.95;101947.75;5054254;28;20309;-77
2024/02/15 10:17:55;;;;;;;;;;;;;;;1.88;78.13;101952.94;5054442;28;19932;-73
2024/02/15 10:20:22;;;;;;;;;;;;;;;1.89;78.01;101953.78;5054097;28;19928;-74
2024/02/15 10:22:48;;;;;;;;;;;;;;;1.89;78.30;101952.09;5047790;28;19984;-76
2024/02/15 10:25:15;;;;;;;;;;;;;;;1.90;78.29;101950.38;5034218;28;19929;-75
2024/02/15 10:27:43;;;;;;;;;;;;;;;1.88;78.32;101952.94;5034112;28;19936;-73
2024/02/15 10:30:16;;;;;;;;;;;;;;;1.88;78.43;101947.75;5034109;28;19929;-75
2024/02/15 10:32:43;;;;;;;;;;;;;;;1.88;78.27;101946.88;5034203;28;19929;-74
2024/02/15 10:35:10;;;;;;;;;;;;;;;1.86;78.36;101944.25;5033871;28;19925;-73
2024/02/15 10:37:37;;;;;;;;;;;;;;;1.85;78.46;101947.66;5034104;28;19925;-74
2024/02/15 10:40:07;;;;;;;;;;;;;;;1.86;78.64;101953.69;5033789;28;19926;-73
2024/02/15 10:42:34;;;;;;;;;;;;;;;1.86;78.50;101943.38;5033770;28;20023;-73
2024/02/15 10:45:04;;;;;;;;;;;;;;;1.86;78.61;101946.81;5033961;28;20417;-73
2024/02/15 10:47:31;;;;;;;;;;;;;;;1.87;78.31;101948.56;5033756;28;20385;-74
2024/02/15 10:49:58;;;;;;;;;;;;;;;1.87;78.40;101946.00;5033734;28;19929;-73
2024/02/15 10:52:25;;;;;;;;;;;;;;;1.88;78.27;101947.75;5034041;28;19929;-75
2024/02/15 10:54:53;;;;;;;;;;;;;;;1.88;78.37;101940.03;5033938;28;19935;-74
2024/02/15 10:57:22;;;;;;;;;;;;;;;1.88;78.10;101932.28;5033716;28;19934;-80
2024/02/15 10:59:54;;;;;;;;;;;;;;;1.87;78.15;101934.78;5034182;28;19933;-81
2024/02/15 11:02:27;;;;;;;;;;;;;;;1.86;78.40;101927.91;5034065;28;19971;-80
2024/02/15 11:04:56;;;;;;;;;;;;;;;1.87;78.26;101945.13;5034042;28;20443;-81
2024/02/15 11:07:25;;;;;;;;;;;;;;;1.87;78.33;101932.22;5034296;28;19926;-81
2024/02/15 11:09:52;;;;;;;;;;;;;;;1.88;78.33;101936.56;5033767;28;19932;-80
2024/02/15 11:12:19;;;;;;;;;;;;;;;1.87;78.32;101925.34;5034230;28;19991;-81
2024/02/15 11:14:46;;;;;;;;;;;;;;;1.88;78.44;101932.28;5034094;28;19925;-81
2024/02/15 11:17:33;;;;;;;;;;;;;;;1.89;78.22;101933.16;5034067;28;19929;-81
2024/02/15 11:20:01;;;;;;;;;;;;;;;1.87;78.37;101933.09;5033919;28;19925;-81
2024/02/15 11:22:27;;;;;;;;;;;;;;;1.88;78.43;101929.69;5034122;28;19925;-81
2024/02/15 11:24:54;;;;;;;;;;;;;;;1.88;78.19;101932.28;5032930;28;19925;-80
2024/02/15 11:27:28;;;;;;;;;;;;;;;1.88;78.60;101934.00;5033886;28;19925;-79
2024/02/15 11:29:55;;;;;;;;;;;;;;;1.87;78.36;101932.22;5033513;28;19929;-79
2024/02/15 11:32:43;;;;;;;;;;;;;;;1.88;78.58;101936.56;5033105;28;19925;-78
2024/02/15 11:35:12;;;;;;;;;;;;;;;1.89;78.45;101934.00;5033065;28;19979;-75
2024/02/15 11:38:03;;;;;;;;;;;;;;;1.90;78.35;101937.47;5033310;28;19931;-77
2024/02/15 11:40:50;;;;;;;;;;;;;;;1.90;78.75;101930.63;5033069;28;19933;-76
2024/02/15 11:43:33;;;;;;;;;;;;;;;1.93;78.53;101935.88;5032831;28;20371;-75
2024/02/15 11:46:02;;;;;;;;;;;;;;;1.97;78.52;101938.56;5032994;28;19948;-76
2024/02/15 11:48:29;;;;;;;;;;;;;;;1.98;78.50;101943.75;5032935;28;19929;-77
2024/02/15 11:50:58;;;;;;;;;;;;;;;1.99;78.45;101934.31;5033086;28;19960;-76
2024/02/15 11:53:24;;;;;;;;;;;;;;;2.01;78.65;101941.25;5033022;28;20015;-77
2024/02/15 11:55:51;;;;;;;;;;;;;;;2.04;78.80;101937.91;5033139;28;19925;-75
2024/02/15 11:58:21;;;;;;;;;;;;;;;2.06;78.57;101936.25;5032915;28;19925;-77
2024/02/15 12:20:01;;;;;;;;;;;;;;;2.25;78.37;101932.53;5052864;28;19976;-74
2024/02/15 12:22:33;;;;;;;;;;;;;;;2.27;78.49;101930.84;5045324;28;19925;-75
2024/02/15 12:25:01;;;;;;;;;;;;;;;2.28;78.53;101930.91;5032761;28;20275;-74
2024/02/15 12:27:28;;;;;;;;;;;;;;;2.30;78.33;101931.84;5032912;28;19925;-74
2024/02/15 12:29:58;;;;;;;;;;;;;;;2.31;78.15;101925.84;5032711;28;20262;-73
2024/02/15 12:32:25;;;;;;;;;;;;;;;2.33;78.47;101926.78;5032578;28;19925;-74
2024/02/15 12:34:52;;;;;;;;;;;;;;;2.34;78.38;101932.81;5033589;28;19931;-74
2024/02/15 12:37:20;;;;;;;;;;;;;;;2.34;78.05;101933.69;5036340;28;19929;-74
2024/02/15 12:39:49;;;;;;;;;;;;;;;2.35;78.38;101931.97;5036127;28;19925;-74
2024/02/15 12:42:16;;;;;;;;;;;;;;;2.35;78.45;101935.41;5036128;28;19971;-74
2024/02/15 12:44:46;;;;;;;;;;;;;;;2.35;78.42;101930.25;5036092;28;19925;-75
2024/02/15 12:47:19;;;;;;;;;;;;;;;2.37;78.37;101930.31;5036160;28;20344;-74
2024/02/15 12:49:46;;;;;;;;;;;;;;;2.37;78.32;101931.19;5036071;28;19925;-75
2024/02/15 12:52:31;;;;;;;;;;;;;;;2.40;78.39;101934.69;5045430;28;19939;-75
2024/02/15 12:55:09;;;;;;;;;;;;;;;2.41;78.41;101933.84;5055850;28;19924;-74
2024/02/15 12:57:36;;;;;;;;;;;;;;;2.41;78.23;101923.53;5055821;28;19925;-73
2024/02/15 13:00:10;;;;;;;;;;;;;;;2.41;78.10;101920.94;5055681;28;19928;-75
2024/02/15 13:02:37;;;;;;;;;;;;;;;2.42;78.33;101910.66;5055654;28;20423;-74
2024/02/15 13:05:04;;;;;;;;;;;;;;;2.42;77.90;101908.09;5055551;28;19931;-72
2024/02/15 13:07:31;;;;;;;;;;;;;;;2.43;78.30;101911.53;5055616;28;19925;-71
2024/02/15 13:09:57;;;;;;;;;;;;;;;2.43;78.27;101908.94;5055486;28;19925;-73
2024/02/15 13:12:25;;;;;;;;;;;;;;;2.43;78.30;101908.94;5055862;28;19931;-73
2024/02/15 13:14:53;;;;;;;;;;;;;;;2.42;78.35;101910.66;5055360;28;19932;-73
2024/02/15 13:17:20;;;;;;;;;;;;;;;2.43;78.36;101914.13;5055453;28;19964;-72
2024/02/15 13:19:48;;;;;;;;;;;;;;;2.41;78.25;101913.19;5055336;28;19931;-71
2024/02/15 13:22:15;;;;;;;;;;;;;;;2.40;78.33;101917.50;5055357;28;19974;-74